Time;durP1;ratioP1;P1;durP2;ratioP2;P2;SDS_P1;SDS_P2;PMS_P1;PMS_P2;Temp;Humidity;BMP_temperature;BMP_pressure;BME280_temperature;BME280_humidity;BME280_pressure;Samples;Min_cycle;Max_cycle;Signal;HPM_P1;HPM_P2
2021/01/07 00:00:11;;;;;;;4.78;4.28;;;21.20;31.20;;;;;;5030334;28;20387;-59
2021/01/07 00:02:37;;;;;;;4.72;4.05;;;21.20;31.20;;;;;;5030947;28;20513;-63
2021/01/07 00:05:04;;;;;;;4.90;4.17;;;21.20;31.20;;;;;;5031200;28;20473;-59
2021/01/07 00:07:30;;;;;;;4.30;3.78;;;21.20;31.20;;;;;;5030899;28;20399;-59
2021/01/07 00:09:55;;;;;;;4.40;3.83;;;21.20;31.20;;;;;;5030837;28;20759;-59
2021/01/07 00:12:21;;;;;;;4.95;4.10;;;21.10;31.80;;;;;;5030389;28;20398;-59
2021/01/07 00:14:47;;;;;;;4.30;3.80;;;21.20;31.20;;;;;;5030573;28;20375;-59
2021/01/07 00:17:12;;;;;;;4.78;4.20;;;21.10;31.10;;;;;;5031628;28;20418;-59
2021/01/07 00:19:38;;;;;;;4.87;4.20;;;21.20;31.20;;;;;;5034279;28;20394;-59
2021/01/07 00:22:03;;;;;;;4.65;3.85;;;21.10;31.10;;;;;;5034054;28;20383;-60
2021/01/07 00:24:29;;;;;;;4.20;3.80;;;21.20;31.20;;;;;;5034012;28;20885;-59
2021/01/07 00:26:55;;;;;;;4.88;3.90;;;21.10;31.10;;;;;;5034318;28;20395;-59
2021/01/07 00:29:20;;;;;;;4.20;3.70;;;21.10;31.10;;;;;;5034182;28;20426;-60
2021/01/07 00:31:46;;;;;;;4.45;3.92;;;21.10;31.10;;;;;;5033729;28;20742;-60
2021/01/07 00:34:11;;;;;;;3.80;3.40;;;21.10;31.10;;;;;;5033683;28;20399;-59
2021/01/07 00:36:37;;;;;;;4.07;3.67;;;21.10;31.00;;;;;;5032715;28;20415;-59
2021/01/07 00:39:03;;;;;;;4.10;3.60;;;21.10;31.00;;;;;;5034066;28;20387;-59
2021/01/07 00:41:29;;;;;;;4.72;3.90;;;21.10;31.00;;;;;;5032544;28;20755;-59
2021/01/07 00:43:54;;;;;;;4.47;3.85;;;21.10;31.00;;;;;;5033994;28;20387;-59
2021/01/07 00:46:20;;;;;;;4.30;3.80;;;21.10;31.00;;;;;;5033449;28;20390;-59
2021/01/07 00:48:47;;;;;;;4.43;3.70;;;21.10;31.00;;;;;;5032513;28;20470;-60
2021/01/07 00:51:13;;;;;;;4.32;3.70;;;21.10;31.00;;;;;;5033966;28;20391;-59
2021/01/07 00:53:39;;;;;;;4.07;3.58;;;21.10;31.00;;;;;;5033613;28;20387;-59
2021/01/07 00:56:05;;;;;;;4.00;3.50;;;21.10;31.00;;;;;;5033649;28;20502;-59
2021/01/07 00:58:30;;;;;;;3.90;3.50;;;21.10;31.00;;;;;;5033397;28;21053;-59
2021/01/07 01:00:56;;;;;;;3.45;3.10;;;21.00;30.90;;;;;;5033551;28;20806;-59
2021/01/07 01:03:22;;;;;;;4.10;3.20;;;21.00;31.00;;;;;;5033741;28;20380;-60
2021/01/07 01:05:48;;;;;;;3.70;3.10;;;21.00;30.90;;;;;;5033387;28;20482;-59
2021/01/07 01:08:16;;;;;;;3.95;3.30;;;21.10;30.90;;;;;;5033034;28;20418;-58
2021/01/07 01:10:45;;;;;;;3.90;3.15;;;21.10;30.90;;;;;;5032997;28;20395;-59
2021/01/07 01:13:11;;;;;;;3.73;3.20;;;21.00;30.80;;;;;;5030553;28;20934;-58
2021/01/07 01:15:37;;;;;;;4.13;3.22;;;21.00;31.00;;;;;;5032982;28;20410;-58
2021/01/07 01:18:04;;;;;;;3.72;3.30;;;20.90;31.10;;;;;;5032770;28;20407;-58
2021/01/07 01:20:29;;;;;;;3.30;3.00;;;20.90;31.40;;;;;;5032703;28;20391;-58
2021/01/07 01:22:55;;;;;;;3.50;3.20;;;20.90;31.40;;;;;;5032844;28;20942;-58
2021/01/07 01:25:21;;;;;;;3.45;3.00;;;20.90;31.40;;;;;;5032956;28;20398;-58
2021/01/07 01:27:46;;;;;;;3.30;2.97;;;20.90;31.40;;;;;;5031634;28;20423;-58
2021/01/07 01:30:14;;;;;;;3.60;3.03;;;20.90;31.50;;;;;;5031592;28;20419;-58
2021/01/07 01:32:41;;;;;;;3.65;3.13;;;20.90;31.50;;;;;;5033434;28;20751;-63
2021/01/07 01:35:08;;;;;;;3.13;2.72;;;20.90;31.50;;;;;;5033665;28;20394;-84
2021/01/07 01:37:38;;;;;;;3.20;2.90;;;20.90;31.50;;;;;;5033994;28;20407;-64
2021/01/07 01:40:05;;;;;;;3.30;2.90;;;20.90;31.50;;;;;;5033869;28;20747;-67
2021/01/07 01:42:31;;;;;;;3.42;3.05;;;20.90;31.60;;;;;;5030557;28;20816;-84
2021/01/07 01:44:56;;;;;;;3.10;2.78;;;20.90;31.50;;;;;;5033788;28;20899;-83
2021/01/07 01:47:22;;;;;;;3.10;2.80;;;21.00;31.10;;;;;;5033574;28;20387;-61
2021/01/07 01:49:52;;;;;;;3.13;2.78;;;21.00;31.30;;;;;;5034010;28;20449;-87
2021/01/07 01:52:22;;;;;;;3.50;2.95;;;21.00;31.20;;;;;;5033812;28;20891;-80
2021/01/07 01:54:48;;;;;;;3.65;2.80;;;21.10;31.30;;;;;;5033547;28;20399;-81
2021/01/07 01:57:15;;;;;;;4.25;2.50;;;21.00;31.50;;;;;;5033791;28;20411;-84
2021/01/07 01:59:41;;;;;;;3.38;2.70;;;21.00;31.40;;;;;;5033874;28;20402;-86
2021/01/07 02:02:11;;;;;;;2.83;2.42;;;21.00;31.60;;;;;;5034028;28;20426;-86
2021/01/07 02:04:37;;;;;;;3.00;2.50;;;21.00;31.60;;;;;;5033601;28;20486;-86
2021/01/07 02:07:06;;;;;;;3.08;2.58;;;21.00;31.60;;;;;;5033942;28;20391;-83
2021/01/07 02:09:33;;;;;;;2.92;2.30;;;20.90;31.60;;;;;;5033767;28;20395;-85
2021/01/07 02:11:59;;;;;;;3.00;2.58;;;20.90;31.60;;;;;;5033803;28;20945;-67
2021/01/07 02:14:26;;;;;;;3.15;2.42;;;20.90;31.60;;;;;;5032986;28;20383;-74
2021/01/07 02:16:53;;;;;;;2.90;2.30;;;20.90;31.60;;;;;;5033014;28;20525;-63
2021/01/07 02:19:19;;;;;;;2.88;2.35;;;20.90;31.60;;;;;;5033360;28;20390;-82
2021/01/07 02:21:45;;;;;;;2.92;2.30;;;20.90;31.60;;;;;;5033609;28;20391;-75
2021/01/07 02:24:13;;;;;;;2.60;2.40;;;20.90;31.70;;;;;;5033133;28;20394;-79
2021/01/07 02:26:41;;;;;;;3.08;2.40;;;20.90;31.70;;;;;;5033021;28;20387;-85
2021/01/07 02:29:07;;;;;;;2.90;2.35;;;20.90;31.60;;;;;;5033576;28;20455;-84
2021/01/07 02:31:32;;;;;;;3.22;2.40;;;20.90;31.60;;;;;;5033363;28;20923;-85
2021/01/07 02:33:58;;;;;;;2.50;2.20;;;20.90;31.60;;;;;;5032676;28;20506;-70
2021/01/07 02:36:24;;;;;;;2.90;2.20;;;20.90;31.50;;;;;;5031871;28;20803;-75
2021/01/07 02:38:49;;;;;;;2.75;2.47;;;20.90;31.50;;;;;;5032619;28;20426;-74
2021/01/07 02:41:15;;;;;;;3.00;2.60;;;20.90;31.40;;;;;;5032674;28;20506;-77
2021/01/07 02:43:41;;;;;;;2.50;2.20;;;20.90;31.50;;;;;;5032898;28;20415;-78
2021/01/07 02:46:06;;;;;;;3.03;2.50;;;20.90;31.40;;;;;;5032798;28;20898;-85
2021/01/07 02:48:32;;;;;;;2.95;2.30;;;20.90;31.40;;;;;;5032685;28;20389;-84
2021/01/07 02:50:58;;;;;;;3.15;2.30;;;20.90;31.40;;;;;;5033015;28;20403;-76
2021/01/07 02:53:24;;;;;;;2.77;2.10;;;20.90;31.40;;;;;;5033329;28;20382;-77
2021/01/07 02:55:49;;;;;;;2.72;2.22;;;20.90;31.40;;;;;;5033073;28;20902;-81
2021/01/07 02:58:15;;;;;;;2.73;2.30;;;20.90;31.40;;;;;;5032836;28;20387;-75
2021/01/07 03:00:40;;;;;;;3.00;2.50;;;20.90;31.40;;;;;;5032877;28;20406;-72
2021/01/07 03:03:06;;;;;;;2.70;2.30;;;20.80;31.30;;;;;;5031349;28;20751;-86
2021/01/07 03:05:33;;;;;;;2.38;2.10;;;20.80;31.30;;;;;;5032760;28;20775;-68
2021/01/07 03:07:59;;;;;;;2.50;2.15;;;20.80;31.30;;;;;;5032748;28;20418;-75
2021/01/07 03:10:24;;;;;;;2.78;2.30;;;20.80;31.40;;;;;;5032108;28;20460;-75
2021/01/07 03:12:50;;;;;;;2.65;2.20;;;20.90;31.40;;;;;;5031416;28;20401;-82
2021/01/07 03:15:15;;;;;;;3.17;2.27;;;20.80;31.40;;;;;;5032609;28;20422;-64
2021/01/07 03:17:41;;;;;;;2.60;2.08;;;20.80;31.30;;;;;;5031772;28;20490;-58
2021/01/07 03:20:12;;;;;;;2.33;2.10;;;20.80;31.30;;;;;;5031725;28;20478;-82
2021/01/07 03:22:39;;;;;;;2.85;2.20;;;20.80;31.30;;;;;;5032685;28;20843;-84
2021/01/07 03:25:05;;;;;;;2.70;2.20;;;20.80;31.30;;;;;;5032892;28;20399;-74
2021/01/07 03:27:31;;;;;;;2.90;2.10;;;20.80;31.30;;;;;;5031407;28;20425;-82
2021/01/07 03:29:57;;;;;;;2.50;2.10;;;20.80;31.30;;;;;;5032649;28;20391;-72
2021/01/07 03:32:24;;;;;;;2.60;2.30;;;20.80;31.30;;;;;;5031591;28;20414;-72
2021/01/07 03:34:51;;;;;;;2.50;2.25;;;20.80;31.30;;;;;;5032282;28;20403;-71
2021/01/07 03:37:17;;;;;;;2.35;2.15;;;20.80;31.30;;;;;;5032112;28;20410;-69
2021/01/07 03:39:42;;;;;;;2.53;2.10;;;20.80;31.30;;;;;;5031783;28;20384;-78
2021/01/07 03:42:08;;;;;;;2.20;2.00;;;20.70;31.20;;;;;;5031914;28;20748;-72
2021/01/07 03:44:34;;;;;;;2.47;2.17;;;20.70;31.20;;;;;;5031499;28;20395;-61
2021/01/07 03:46:59;;;;;;;2.00;1.80;;;20.80;31.30;;;;;;5031900;28;20394;-63
2021/01/07 03:49:25;;;;;;;2.30;2.10;;;20.70;31.20;;;;;;5031743;28;20398;-65
2021/01/07 03:51:51;;;;;;;2.40;2.20;;;20.70;31.30;;;;;;5031540;28;20510;-84
2021/01/07 03:54:16;;;;;;;2.37;2.10;;;20.70;31.30;;;;;;5034859;28;20949;-76
2021/01/07 03:56:42;;;;;;;2.22;2.00;;;20.70;31.30;;;;;;5035468;28;20433;-82
2021/01/07 03:59:07;;;;;;;2.20;2.00;;;20.70;31.30;;;;;;5036034;28;20398;-72
2021/01/07 04:01:33;;;;;;;2.10;1.90;;;20.70;31.30;;;;;;5035200;28;20482;-66
2021/01/07 04:03:58;;;;;;;2.53;2.17;;;20.70;31.20;;;;;;5034993;28;20819;-62
2021/01/07 04:06:24;;;;;;;2.10;1.90;;;20.70;31.20;;;;;;5033324;28;20391;-60
2021/01/07 04:08:50;;;;;;;2.77;2.20;;;20.70;31.20;;;;;;5035069;28;20371;-66
2021/01/07 04:11:15;;;;;;;2.80;2.30;;;20.70;31.10;;;;;;5035021;28;20403;-60
2021/01/07 04:13:41;;;;;;;3.70;2.40;;;20.70;31.10;;;;;;5034444;28;20402;-60
2021/01/07 04:16:07;;;;;;;2.92;2.60;;;20.80;32.10;;;;;;5034491;28;20415;-64
2021/01/07 04:18:32;;;;;;;3.40;2.40;;;20.90;32.30;;;;;;5034106;28;20879;-59
2021/01/07 04:20:58;;;;;;;4.20;2.45;;;20.90;32.80;;;;;;5034619;28;20391;-64
2021/01/07 04:23:24;;;;;;;3.40;2.30;;;21.00;32.90;;;;;;5034841;28;20948;-62
2021/01/07 04:25:49;;;;;;;4.53;2.30;;;21.00;32.80;;;;;;5034596;28;20383;-59
2021/01/07 04:28:15;;;;;;;4.13;2.33;;;21.00;32.70;;;;;;5016859;28;20391;-59
2021/01/07 04:30:41;;;;;;;4.80;2.10;;;21.00;32.40;;;;;;5034625;28;20399;-67
2021/01/07 04:33:06;;;;;;;3.25;2.10;;;21.00;32.10;;;;;;5033694;28;20411;-75
2021/01/07 04:35:32;;;;;;;3.47;2.30;;;21.00;31.90;;;;;;5034967;28;20407;-75
2021/01/07 04:37:57;;;;;;;2.38;2.17;;;21.00;31.80;;;;;;5035302;28;20403;-75
2021/01/07 04:40:23;;;;;;;3.20;2.30;;;21.00;31.70;;;;;;5034173;28;20386;-59
2021/01/07 04:42:49;;;;;;;4.80;2.20;;;21.00;32.10;;;;;;5034164;28;20760;-59
2021/01/07 04:45:15;;;;;;;4.32;2.20;;;21.00;32.30;;;;;;5034136;28;20380;-59
2021/01/07 04:47:40;;;;;;;4.40;2.30;;;21.00;33.20;;;;;;5033907;28;20483;-58
2021/01/07 04:50:07;;;;;;;5.65;2.13;;;21.10;33.40;;;;;;5033922;28;20870;-62
2021/01/07 04:52:34;;;;;;;3.40;2.30;;;21.10;33.30;;;;;;5033477;28;20901;-59
2021/01/07 04:55:00;;;;;;;3.65;2.15;;;21.10;33.40;;;;;;5033893;28;20390;-59
2021/01/07 04:57:26;;;;;;;4.93;1.97;;;21.20;33.20;;;;;;5033310;28;21042;-60
2021/01/07 04:59:52;;;;;;;4.70;2.28;;;21.20;33.20;;;;;;5033568;28;20475;-59
2021/01/07 05:02:18;;;;;;;4.70;2.15;;;21.20;32.90;;;;;;5032781;28;20434;-61
2021/01/07 05:04:53;;;;;;;3.38;2.20;;;21.20;32.60;;;;;;5033019;28;20427;-58
2021/01/07 05:07:20;;;;;;;7.75;2.50;;;21.20;32.40;;;;;;5033702;28;20868;-59
2021/01/07 05:09:54;;;;;;;4.05;2.35;;;21.20;32.60;;;;;;5033626;28;20751;-59
2021/01/07 05:12:19;;;;;;;5.93;2.13;;;21.20;33.00;;;;;;5033449;28;20456;-59
2021/01/07 05:14:46;;;;;;;5.03;2.28;;;21.20;33.10;;;;;;5033191;28;20387;-59
2021/01/07 05:17:16;;;;;;;4.20;2.40;;;21.20;32.90;;;;;;5033119;28;20414;-58
2021/01/07 05:19:42;;;;;;;3.13;2.30;;;21.10;32.80;;;;;;5032500;28;21326;-62
2021/01/07 05:22:08;;;;;;;4.20;2.28;;;21.10;32.70;;;;;;5032918;28;20665;-59
2021/01/07 05:24:34;;;;;;;4.20;2.40;;;21.10;32.60;;;;;;5032563;28;20383;-59
2021/01/07 05:27:09;;;;;;;5.15;2.50;;;21.00;32.60;;;;;;5032737;28;20752;-59
2021/01/07 05:29:39;;;;;;;8.05;2.75;;;21.00;32.60;;;;;;5033139;28;20474;-81
2021/01/07 05:32:07;;;;;;;5.05;2.80;;;21.00;32.70;;;;;;5033135;28;20410;-67
2021/01/07 05:34:47;;;;;;;6.97;2.70;;;21.00;32.50;;;;;;5033236;28;20379;-59
2021/01/07 05:37:20;;;;;;;6.70;2.58;;;21.00;32.20;;;;;;5033118;28;20485;-74
2021/01/07 05:39:49;;;;;;;4.75;2.63;;;21.00;32.10;;;;;;5033450;28;20379;-78
2021/01/07 05:42:16;;;;;;;4.28;2.53;;;21.00;32.10;;;;;;5034084;28;20393;-80
2021/01/07 05:44:45;;;;;;;5.30;2.70;;;21.00;32.00;;;;;;5032198;28;20387;-74
2021/01/07 05:47:27;;;;;;;5.93;2.67;;;21.00;31.90;;;;;;5032763;28;20391;-80
2021/01/07 05:49:54;;;;;;;7.13;2.88;;;21.00;31.80;;;;;;5033820;28;20474;-66
2021/01/07 05:52:21;;;;;;;6.75;2.88;;;21.00;31.70;;;;;;5033103;28;20879;-65
2021/01/07 05:54:48;;;;;;;4.40;2.50;;;21.00;31.60;;;;;;5033818;28;20389;-81
2021/01/07 05:57:14;;;;;;;4.68;2.63;;;20.90;31.60;;;;;;5033858;28;20422;-79
2021/01/07 05:59:41;;;;;;;5.13;2.57;;;20.90;31.40;;;;;;5033877;28;20384;-81
2021/01/07 06:02:09;;;;;;;4.00;2.40;;;21.00;31.40;;;;;;5033467;28;20411;-58
2021/01/07 06:04:35;;;;;;;4.88;2.15;;;21.00;31.40;;;;;;5031966;28;20391;-61
2021/01/07 06:07:01;;;;;;;4.13;2.50;;;20.90;31.30;;;;;;5032822;28;20390;-62
2021/01/07 06:09:30;;;;;;;3.67;2.40;;;20.90;31.20;;;;;;5031581;28;20406;-63
2021/01/07 06:12:00;;;;;;;4.60;2.30;;;20.90;31.20;;;;;;5033265;28;20383;-67
2021/01/07 06:14:26;;;;;;;3.80;2.33;;;20.90;31.20;;;;;;5031935;28;20717;-67
2021/01/07 06:16:54;;;;;;;4.07;2.47;;;20.90;31.10;;;;;;5032919;28;20415;-66
2021/01/07 06:19:30;;;;;;;3.67;2.27;;;20.90;31.10;;;;;;5033544;28;20388;-80
2021/01/07 06:21:57;;;;;;;3.47;2.42;;;20.90;31.10;;;;;;5033308;28;20461;-69
2021/01/07 06:24:28;;;;;;;4.20;2.40;;;20.80;31.00;;;;;;5033455;28;20783;-76
2021/01/07 06:26:53;;;;;;;6.32;2.50;;;20.80;31.40;;;;;;5033299;28;20395;-78
2021/01/07 06:29:19;;;;;;;4.72;2.63;;;20.80;31.80;;;;;;5033553;28;20379;-81
2021/01/07 06:31:54;;;;;;;4.00;2.67;;;20.80;32.20;;;;;;5032922;28;20440;-81
2021/01/07 06:34:25;;;;;;;3.75;2.67;;;20.90;32.30;;;;;;5033346;28;20399;-80
2021/01/07 06:36:52;;;;;;;6.40;2.75;;;20.80;32.10;;;;;;5033134;28;20419;-81
2021/01/07 06:39:21;;;;;;;5.55;2.80;;;20.80;32.40;;;;;;5032301;28;20893;-82
2021/01/07 06:41:59;;;;;;;4.50;2.67;;;20.80;32.30;;;;;;5033565;28;20733;-81
2021/01/07 06:44:26;;;;;;;4.10;2.80;;;20.80;32.10;;;;;;5032901;28;20391;-81
2021/01/07 06:46:51;;;;;;;5.07;2.97;;;20.80;32.00;;;;;;5032807;28;20422;-81
2021/01/07 06:49:20;;;;;;;4.50;2.90;;;20.80;31.80;;;;;;5032810;28;20875;-81
2021/01/07 06:51:54;;;;;;;4.57;3.08;;;20.80;31.60;;;;;;5033153;28;20399;-80
2021/01/07 06:54:23;;;;;;;3.67;2.90;;;20.80;31.50;;;;;;5033040;28;20406;-62
2021/01/07 06:56:52;;;;;;;4.93;2.95;;;20.80;31.40;;;;;;5032991;28;20540;-80
2021/01/07 06:59:20;;;;;;;3.83;3.00;;;20.80;31.30;;;;;;5032980;28;20471;-78
2021/01/07 07:01:49;;;;;;;4.78;3.05;;;20.80;31.30;;;;;;5032874;28;20430;-80
2021/01/07 07:04:32;;;;;;;5.05;3.03;;;20.80;31.20;;;;;;5033114;28;20395;-81
2021/01/07 07:07:05;;;;;;;4.50;3.05;;;20.80;31.20;;;;;;5033299;28;20433;-78
2021/01/07 07:09:39;;;;;;;4.78;3.30;;;20.80;31.20;;;;;;5032776;28;20383;-80
2021/01/07 07:12:05;;;;;;;4.30;3.22;;;20.80;31.10;;;;;;5032851;28;20425;-74
2021/01/07 07:14:32;;;;;;;4.00;3.17;;;20.70;31.00;;;;;;5032406;28;20478;-77
2021/01/07 07:17:05;;;;;;;4.13;3.20;;;20.70;31.00;;;;;;5031902;28;20423;-80
2021/01/07 07:19:30;;;;;;;4.00;3.10;;;20.80;31.10;;;;;;5031680;28;20395;-63
2021/01/07 07:22:00;;;;;;;4.10;3.10;;;20.70;31.00;;;;;;5031445;28;20453;-60
2021/01/07 07:24:39;;;;;;;4.45;3.25;;;20.70;31.00;;;;;;5030956;28;20394;-59
2021/01/07 07:27:10;;;;;;;4.38;3.30;;;20.80;31.00;;;;;;5032474;28;20398;-59
2021/01/07 07:29:37;;;;;;;4.95;3.08;;;20.70;31.60;;;;;;5035368;28;20782;-59
2021/01/07 07:32:23;;;;;;;4.53;3.17;;;20.70;31.60;;;;;;5035387;28;20399;-59
2021/01/07 07:34:50;;;;;;;5.30;3.03;;;20.70;31.20;;;;;;5034762;28;20391;-59
2021/01/07 07:37:24;;;;;;;5.13;3.80;;;20.70;31.40;;;;;;5035252;28;20415;-59
2021/01/07 07:39:58;;;;;;;6.10;3.90;;;20.70;30.70;;;;;;5035349;28;20391;-59
2021/01/07 07:42:28;;;;;;;5.57;4.00;;;20.80;30.70;;;;;;5035280;28;20393;-59
2021/01/07 07:44:54;;;;;;;8.15;3.78;;;20.90;30.80;;;;;;5034953;28;20383;-60
2021/01/07 07:47:20;;;;;;;4.50;3.40;;;20.90;31.00;;;;;;5035392;28;20394;-62
2021/01/07 07:49:54;;;;;;;6.82;3.45;;;20.80;30.80;;;;;;5035363;28;20401;-63
2021/01/07 07:52:23;;;;;;;4.93;3.25;;;20.80;30.90;;;;;;5035466;28;20406;-58
2021/01/07 07:55:05;;;;;;;5.47;3.30;;;20.80;30.80;;;;;;5034341;28;20417;-57
2021/01/07 07:57:45;;;;;;;5.25;3.40;;;20.70;31.00;;;;;;5034770;28;20469;-57
2021/01/07 08:00:15;;;;;;;7.78;3.40;;;20.70;31.10;;;;;;5034960;28;20379;-57
2021/01/07 08:02:43;;;;;;;8.43;3.63;;;20.70;31.50;;;;;;5034242;28;20395;-58
2021/01/07 08:05:09;;;;;;;8.90;3.60;;;20.70;31.50;;;;;;5034736;28;20391;-57
2021/01/07 08:07:35;;;;;;;7.85;3.20;;;20.70;31.20;;;;;;5034792;28;20462;-58
2021/01/07 08:10:09;;;;;;;7.15;3.40;;;20.70;31.10;;;;;;5034784;28;20393;-57
2021/01/07 08:12:36;;;;;;;7.20;3.35;;;20.70;31.20;;;;;;5034226;28;20383;-57
2021/01/07 08:15:03;;;;;;;5.95;3.40;;;20.70;31.10;;;;;;5034709;28;20391;-57
2021/01/07 08:17:28;;;;;;;7.10;3.20;;;20.70;31.00;;;;;;5034377;28;20441;-57
2021/01/07 08:19:54;;;;;;;7.70;2.97;;;20.80;31.10;;;;;;5034811;28;20387;-57
2021/01/07 08:22:27;;;;;;;6.47;3.00;;;20.70;31.10;;;;;;5034562;28;20398;-58
2021/01/07 08:24:57;;;;;;;5.17;3.00;;;20.70;31.30;;;;;;5034260;28;20482;-58
2021/01/07 08:27:27;;;;;;;7.20;3.37;;;20.70;31.30;;;;;;5034262;28;20890;-58
2021/01/07 08:30:00;;;;;;;6.15;3.28;;;20.70;31.20;;;;;;5034114;28;20391;-61
2021/01/07 08:32:34;;;;;;;7.80;3.10;;;20.70;31.40;;;;;;5033712;28;20415;-57
2021/01/07 08:35:06;;;;;;;5.20;3.30;;;20.70;31.20;;;;;;5034313;28;20481;-58
2021/01/07 08:37:33;;;;;;;5.65;3.30;;;20.70;31.00;;;;;;5033643;28;20423;-58
2021/01/07 08:40:06;;;;;;;6.05;3.30;;;20.70;31.20;;;;;;5034172;28;20387;-58
2021/01/07 08:42:39;;;;;;;6.32;3.28;;;20.60;31.20;;;;;;5033890;28;20434;-58
2021/01/07 08:45:09;;;;;;;5.93;2.97;;;20.60;31.20;;;;;;5034012;28;20422;-57
2021/01/07 08:47:35;;;;;;;5.90;3.27;;;20.60;31.20;;;;;;5034109;28;20391;-57
2021/01/07 08:50:05;;;;;;;5.88;3.17;;;20.60;31.20;;;;;;5034021;28;20910;-58
2021/01/07 08:52:46;;;;;;;5.47;3.08;;;20.60;31.10;;;;;;5033705;28;20926;-58
2021/01/07 08:55:12;;;;;;;5.28;3.30;;;20.60;31.10;;;;;;5033776;28;20743;-58
2021/01/07 08:57:37;;;;;;;6.20;3.30;;;20.60;31.10;;;;;;5033834;28;20415;-58
2021/01/07 09:00:16;;;;;;;4.78;2.80;;;20.60;31.10;;;;;;5033524;28;20394;-57
2021/01/07 09:02:42;;;;;;;4.47;2.90;;;20.60;31.00;;;;;;5033262;28;20482;-57
2021/01/07 09:05:08;;;;;;;4.97;3.20;;;20.60;31.10;;;;;;5032446;28;20624;-57
2021/01/07 09:07:34;;;;;;;4.43;2.85;;;20.60;31.00;;;;;;5033643;28;20395;-57
2021/01/07 09:10:00;;;;;;;4.43;2.90;;;20.60;31.10;;;;;;5033644;28;20482;-58
2021/01/07 09:12:34;;;;;;;4.60;3.07;;;20.50;31.00;;;;;;5033861;28;20550;-57
2021/01/07 09:15:23;;;;;;;3.90;2.70;;;20.60;31.00;;;;;;5033281;28;20739;-57
2021/01/07 09:17:55;;;;;;;4.47;2.97;;;20.50;30.90;;;;;;5033623;28;20403;-57
2021/01/07 09:20:28;;;;;;;4.93;3.20;;;20.50;30.90;;;;;;5033172;28;20394;-57
2021/01/07 09:23:04;;;;;;;4.15;3.30;;;20.50;30.90;;;;;;5032986;28;20399;-57
2021/01/07 09:25:30;;;;;;;4.43;3.10;;;20.50;30.90;;;;;;5033339;28;20804;-57
2021/01/07 09:27:57;;;;;;;3.80;3.22;;;20.50;30.80;;;;;;5033357;28;20478;-57
2021/01/07 09:30:23;;;;;;;5.20;3.30;;;20.50;30.90;;;;;;5033178;28;20387;-57
2021/01/07 09:32:49;;;;;;;4.18;3.00;;;20.50;31.60;;;;;;5032623;28;20422;-57
2021/01/07 09:35:15;;;;;;;3.75;3.10;;;20.50;30.90;;;;;;5033464;28;20379;-57
2021/01/07 09:37:41;;;;;;;4.67;3.37;;;20.50;30.90;;;;;;5032877;28;20423;-57
2021/01/07 09:40:07;;;;;;;4.88;3.00;;;20.50;30.90;;;;;;5033118;28;20388;-57
2021/01/07 09:42:33;;;;;;;4.38;3.20;;;20.50;30.90;;;;;;5032638;28;20395;-58
2021/01/07 09:45:04;;;;;;;4.83;3.10;;;20.50;30.90;;;;;;5032761;28;20394;-58
2021/01/07 09:47:30;;;;;;;4.30;2.90;;;20.50;30.90;;;;;;5032960;28;20574;-57
2021/01/07 09:49:58;;;;;;;3.55;3.00;;;20.50;30.90;;;;;;5032234;28;20541;-57
2021/01/07 09:52:24;;;;;;;3.75;3.20;;;20.50;30.80;;;;;;5032740;28;20402;-57
2021/01/07 09:54:50;;;;;;;4.10;2.83;;;20.50;30.80;;;;;;5032365;28;20398;-57
2021/01/07 09:57:15;;;;;;;3.63;3.07;;;20.50;30.80;;;;;;5032581;28;20419;-57
2021/01/07 09:59:41;;;;;;;3.95;2.92;;;20.50;30.80;;;;;;5032698;28;20403;-57
2021/01/07 10:02:09;;;;;;;4.43;3.27;;;20.50;30.80;;;;;;5032337;28;20392;-67
2021/01/07 10:04:35;;;;;;;3.90;3.17;;;20.50;30.90;;;;;;5032362;28;20455;-58
2021/01/07 10:07:02;;;;;;;4.20;3.28;;;20.50;30.90;;;;;;5032370;28;20399;-58
2021/01/07 10:09:28;;;;;;;4.47;3.00;;;20.50;30.90;;;;;;5032494;28;20411;-58
2021/01/07 10:11:56;;;;;;;3.90;3.08;;;20.40;30.80;;;;;;5032790;28;20438;-58
2021/01/07 10:14:22;;;;;;;3.67;3.05;;;20.50;30.90;;;;;;5032449;28;20395;-60
2021/01/07 10:16:56;;;;;;;3.55;2.97;;;20.50;30.90;;;;;;5031711;28;20411;-59
2021/01/07 10:19:24;;;;;;;3.65;3.08;;;20.50;30.90;;;;;;5032429;28;20427;-58
2021/01/07 10:22:00;;;;;;;3.35;2.92;;;20.50;30.80;;;;;;5031985;28;20497;-67
2021/01/07 10:24:27;;;;;;;3.33;3.03;;;20.50;30.90;;;;;;5030007;28;20452;-63
2021/01/07 10:26:58;;;;;;;3.60;2.88;;;20.50;30.90;;;;;;5031154;28;20399;-58
2021/01/07 10:29:29;;;;;;;3.78;3.10;;;20.50;30.80;;;;;;5032622;28;20449;-79
2021/01/07 10:31:58;;;;;;;3.60;2.92;;;20.50;30.80;;;;;;5032170;28;20453;-58
2021/01/07 10:34:26;;;;;;;3.90;3.10;;;20.50;30.80;;;;;;5032222;28;20383;-58
2021/01/07 10:36:53;;;;;;;3.50;3.00;;;20.50;30.80;;;;;;5031802;28;20454;-58
2021/01/07 10:39:22;;;;;;;3.70;2.93;;;20.50;30.80;;;;;;5030859;28;20571;-58
2021/01/07 10:41:55;;;;;;;4.50;3.30;;;20.50;30.80;;;;;;5031315;28;20506;-58
2021/01/07 10:44:22;;;;;;;4.13;3.05;;;20.60;30.80;;;;;;5032765;28;20905;-82
2021/01/07 10:46:54;;;;;;;4.05;3.10;;;20.60;30.70;;;;;;5031581;28;20395;-57
2021/01/07 10:49:20;;;;;;;3.53;2.97;;;20.60;30.70;;;;;;5031905;28;20445;-58
2021/01/07 10:52:11;;;;;;;3.33;2.92;;;20.70;30.80;;;;;;5032128;28;20809;-57
2021/01/07 10:55:07;;;;;;;3.50;3.20;;;20.80;30.50;;;;;;5030376;28;20395;-57
2021/01/07 10:57:56;;;;;;;3.70;3.20;;;20.90;30.40;;;;;;5031712;28;20918;-58
2021/01/07 11:00:35;;;;;;;3.45;3.05;;;21.00;30.30;;;;;;5031624;28;20751;-57
2021/01/07 11:03:07;;;;;;;3.70;3.30;;;21.00;30.50;;;;;;5031184;28;20399;-57
2021/01/07 11:05:37;;;;;;;5.40;3.10;;;21.00;30.60;;;;;;5031578;28;20375;-57
2021/01/07 11:08:16;;;;;;;4.63;3.00;;;21.10;30.70;;;;;;5024715;28;20907;-59
2021/01/07 11:10:49;;;;;;;4.20;3.10;;;21.10;30.60;;;;;;5029604;28;20387;-79
2021/01/07 11:13:20;;;;;;;4.80;2.95;;;21.10;30.50;;;;;;5028689;28;20391;-57
2021/01/07 11:15:46;;;;;;;3.25;2.83;;;21.20;30.50;;;;;;5030273;28;20525;-58
2021/01/07 11:18:14;;;;;;;8.13;3.13;;;21.20;30.40;;;;;;5030303;28;20875;-58
2021/01/07 11:20:48;;;;;;;3.28;2.75;;;21.10;30.30;;;;;;5029927;28;20740;-58
2021/01/07 11:23:14;;;;;;;3.80;3.10;;;21.10;30.30;;;;;;5028354;28;20394;-58
2021/01/07 11:25:40;;;;;;;6.05;3.00;;;21.20;30.40;;;;;;5030195;28;20453;-61
2021/01/07 11:28:06;;;;;;;4.50;3.03;;;21.10;30.30;;;;;;5030164;28;20803;-78
2021/01/07 11:30:32;;;;;;;4.78;2.90;;;21.10;30.30;;;;;;5026793;28;20876;-59
2021/01/07 11:33:02;;;;;;;3.38;2.83;;;21.10;30.30;;;;;;5029438;28;20514;-58
2021/01/07 11:35:29;;;;;;;3.20;2.75;;;21.10;30.30;;;;;;5027443;28;20394;-58
2021/01/07 11:38:03;;;;;;;4.45;3.20;;;21.10;30.30;;;;;;5029891;28;20399;-58
2021/01/07 11:40:48;;;;;;;3.28;2.75;;;21.10;30.30;;;;;;5027963;28;20395;-70
2021/01/07 11:43:43;;;;;;;3.90;3.00;;;21.10;30.30;;;;;;5028658;28;20473;-59
2021/01/07 11:46:17;;;;;;;3.15;2.70;;;21.10;30.30;;;;;;5030484;28;20383;-68
2021/01/07 11:48:46;;;;;;;3.50;2.90;;;21.10;30.30;;;;;;5029941;28;20413;-59
2021/01/07 11:51:13;;;;;;;3.33;2.80;;;21.10;30.30;;;;;;5030148;28;20392;-60
2021/01/07 11:53:40;;;;;;;3.80;3.05;;;21.10;30.20;;;;;;5030031;28;20887;-76
2021/01/07 11:56:07;;;;;;;4.15;3.35;;;21.10;30.30;;;;;;5027297;28;20434;-77
2021/01/07 11:58:35;;;;;;;4.65;3.25;;;21.00;30.40;;;;;;5029767;28;20448;-58
2021/01/07 12:01:01;;;;;;;4.00;3.30;;;21.00;30.60;;;;;;5029244;28;20395;-63
2021/01/07 12:03:28;;;;;;;4.10;3.40;;;21.00;30.50;;;;;;5029461;28;20395;-57
2021/01/07 12:05:57;;;;;;;4.75;3.20;;;21.10;30.50;;;;;;5029779;28;20422;-61
2021/01/07 12:08:33;;;;;;;4.22;3.40;;;21.10;30.60;;;;;;5029747;28;20384;-58
2021/01/07 12:10:59;;;;;;;9.63;3.58;;;21.10;30.70;;;;;;5029265;28;20938;-60
2021/01/07 12:13:48;;;;;;;5.47;3.30;;;21.10;30.70;;;;;;5031636;28;20390;-58
2021/01/07 12:16:24;;;;;;;6.22;3.65;;;21.10;30.80;;;;;;5032353;28;20438;-63
2021/01/07 12:18:50;;;;;;;6.03;3.35;;;21.10;30.70;;;;;;5019684;28;20397;-60
2021/01/07 12:21:19;;;;;;;6.30;3.38;;;21.20;30.70;;;;;;5032447;28;21000;-73
2021/01/07 12:23:46;;;;;;;5.82;3.38;;;21.20;30.70;;;;;;5032290;28;20395;-59
2021/01/07 12:26:13;;;;;;;7.70;3.30;;;21.10;30.80;;;;;;5033599;28;20391;-65
2021/01/07 12:28:41;;;;;;;5.45;3.50;;;21.20;30.80;;;;;;5033269;28;20431;-61
2021/01/07 12:31:08;;;;;;;6.93;3.67;;;21.20;30.70;;;;;;5029510;28;20402;-67
2021/01/07 12:33:52;;;;;;;5.13;3.17;;;21.20;30.50;;;;;;5033242;28;20403;-58
2021/01/07 12:36:26;;;;;;;4.03;3.10;;;21.20;30.80;;;;;;5033639;28;20481;-82
2021/01/07 12:39:23;;;;;;;6.97;3.47;;;21.30;30.90;;;;;;5025501;28;20395;-59
2021/01/07 12:41:52;;;;;;;4.60;3.13;;;21.30;30.70;;;;;;5030854;28;20478;-59
2021/01/07 12:44:23;;;;;;;5.32;3.20;;;21.40;30.70;;;;;;5033269;28;20383;-58
2021/01/07 12:46:52;;;;;;;6.82;3.50;;;21.40;30.50;;;;;;5030435;28;20427;-59
2021/01/07 12:49:18;;;;;;;6.00;3.30;;;21.40;30.60;;;;;;5033212;28;20894;-58
2021/01/07 12:51:47;;;;;;;4.70;3.10;;;21.40;30.70;;;;;;5033325;28;20478;-58
2021/01/07 12:54:15;;;;;;;4.60;2.88;;;21.40;30.70;;;;;;5032900;28;20763;-59